Terminal Aerodrome Forecast
Issued by NWS Twin Cities, MN

Home | Current Version | Previous Version | Text Only | Print | Product List | Glossary Off
Versions: 1 2 3 4 5 6 7 8 9 10 11 12 13 14 15 16 17 18 19 20 21 22 23 24 25 26

000
FTUS43 KMPX 151700
TAFMSP
TAF
KMSP 151730Z 1518/1624 02008KT 2SM RA BR OVC004
      TEMPO 1601/1603 -RAPLSN
     FM160300 33020G28KT 3/4SM -SN BR OVC005
     FM160600 33018G26KT 4SM -SN BR OVC012
     FM161200 33016G22KT P6SM OVC015=

USA.gov is the U.S. government's official web portal to all federal, state and local government web resources and services.